sensor_id;sensor_type;location;lat;lon;timestamp;temperature;humidity
16388;DHT22;8303;53.446;9.988;2022-08-19T04:45:55;18.10;1.00
16388;DHT22;8303;53.446;9.988;2022-08-19T04:48:22;18.10;1.00
16388;DHT22;8303;53.446;9.988;2022-08-19T04:50:58;18.20;1.00
16388;DHT22;8303;53.446;9.988;2022-08-19T04:53:25;18.10;99.90
16388;DHT22;8303;53.446;9.988;2022-08-19T04:55:54;18.00;1.00
16388;DHT22;8303;53.446;9.988;2022-08-19T04:58:21;18.00;1.00
16388;DHT22;8303;53.446;9.988;2022-08-19T05:00:48;18.00;1.00
16388;DHT22;8303;53.446;9.988;2022-08-19T05:03:16;18.00;1.00
16388;DHT22;8303;53.446;9.988;2022-08-19T05:05:44;18.00;1.00
16388;DHT22;8303;53.446;9.988;2022-08-19T05:08:15;18.00;1.00
16388;DHT22;8303;53.446;9.988;2022-08-19T05:13:12;18.00;1.00
16388;DHT22;8303;53.446;9.988;2022-08-19T05:15:40;17.90;1.00
16388;DHT22;8303;53.446;9.988;2022-08-19T05:18:07;17.90;1.00
16388;DHT22;8303;53.446;9.988;2022-08-19T05:20:57;18.00;1.00
16388;DHT22;8303;53.446;9.988;2022-08-19T05:23:42;18.00;1.00
16388;DHT22;8303;53.446;9.988;2022-08-19T05:26:10;17.90;1.00
16388;DHT22;8303;53.446;9.988;2022-08-19T05:28:37;17.90;1.00
16388;DHT22;8303;53.446;9.988;2022-08-19T05:31:04;17.80;1.00
16388;DHT22;8303;53.446;9.988;2022-08-19T05:33:31;17.70;1.00
16388;DHT22;8303;53.446;9.988;2022-08-19T05:36:01;17.60;1.00
16388;DHT22;8303;53.446;9.988;2022-08-19T05:38:28;17.70;1.00
16388;DHT22;8303;53.446;9.988;2022-08-19T05:40:55;17.70;1.00
16388;DHT22;8303;53.446;9.988;2022-08-19T05:43:22;17.70;1.00
16388;DHT22;8303;53.446;9.988;2022-08-19T05:45:49;17.70;1.00
16388;DHT22;8303;53.446;9.988;2022-08-19T05:48:17;17.70;1.00
16388;DHT22;8303;53.446;9.988;2022-08-19T05:50:46;17.60;1.00
16388;DHT22;8303;53.446;9.988;2022-08-19T05:53:17;17.60;1.00
16388;DHT22;8303;53.446;9.988;2022-08-19T05:55:45;17.70;1.00
16388;DHT22;8303;53.446;9.988;2022-08-19T05:58:12;17.60;1.00
16388;DHT22;8303;53.446;9.988;2022-08-19T06:00:39;17.60;1.00
16388;DHT22;8303;53.446;9.988;2022-08-19T06:03:06;17.60;1.00
16388;DHT22;8303;53.446;9.988;2022-08-19T06:05:33;17.70;1.00
16388;DHT22;8303;53.446;9.988;2022-08-19T06:08:00;17.70;1.00
16388;DHT22;8303;53.446;9.988;2022-08-19T06:10:29;17.70;1.00
16388;DHT22;8303;53.446;9.988;2022-08-19T06:12:56;17.70;1.00
16388;DHT22;8303;53.446;9.988;2022-08-19T06:15:23;17.70;1.00
16388;DHT22;8303;53.446;9.988;2022-08-19T06:17:51;17.80;1.00
16388;DHT22;8303;53.446;9.988;2022-08-19T06:20:18;17.90;1.00
16388;DHT22;8303;53.446;9.988;2022-08-19T06:22:47;17.90;1.00
16388;DHT22;8303;53.446;9.988;2022-08-19T06:25:15;17.90;1.00
16388;DHT22;8303;53.446;9.988;2022-08-19T06:27:44;17.80;1.00
16388;DHT22;8303;53.446;9.988;2022-08-19T06:30:12;17.80;1.00
16388;DHT22;8303;53.446;9.988;2022-08-19T06:32:39;17.80;1.00
16388;DHT22;8303;53.446;9.988;2022-08-19T06:35:07;17.70;1.00
16388;DHT22;8303;53.446;9.988;2022-08-19T06:37:34;17.70;1.00
16388;DHT22;8303;53.446;9.988;2022-08-19T06:40:03;17.70;1.00
16388;DHT22;8303;53.446;9.988;2022-08-19T06:42:31;17.70;1.00
16388;DHT22;8303;53.446;9.988;2022-08-19T06:45:00;17.80;1.00
16388;DHT22;8303;53.446;9.988;2022-08-19T06:47:29;17.80;1.00
16388;DHT22;8303;53.446;9.988;2022-08-19T06:49:57;17.90;1.00
16388;DHT22;8303;53.446;9.988;2022-08-19T06:52:27;17.90;1.00
16388;DHT22;8303;53.446;9.988;2022-08-19T06:54:54;17.80;1.00
16388;DHT22;8303;53.446;9.988;2022-08-19T06:57:22;17.90;1.00
16388;DHT22;8303;53.446;9.988;2022-08-19T06:59:49;17.90;1.00
16388;DHT22;8303;53.446;9.988;2022-08-19T07:02:18;17.90;1.00
16388;DHT22;8303;53.446;9.988;2022-08-19T07:04:45;17.90;1.00
16388;DHT22;8303;53.446;9.988;2022-08-19T07:07:14;18.00;1.00
16388;DHT22;8303;53.446;9.988;2022-08-19T07:09:43;18.10;1.00
16388;DHT22;8303;53.446;9.988;2022-08-19T07:12:12;18.20;1.00
16388;DHT22;8303;53.446;9.988;2022-08-19T07:14:41;18.30;1.00
16388;DHT22;8303;53.446;9.988;2022-08-19T07:17:10;18.40;1.00
16388;DHT22;8303;53.446;9.988;2022-08-19T07:19:40;18.50;1.00
16388;DHT22;8303;53.446;9.988;2022-08-19T07:22:09;18.50;1.00
16388;DHT22;8303;53.446;9.988;2022-08-19T07:24:37;18.70;1.00
16388;DHT22;8303;53.446;9.988;2022-08-19T07:27:05;18.90;1.00
16388;DHT22;8303;53.446;9.988;2022-08-19T07:29:34;18.90;99.90
16388;DHT22;8303;53.446;9.988;2022-08-19T07:32:02;18.80;99.90
16388;DHT22;8303;53.446;9.988;2022-08-19T07:34:30;18.70;99.90
16388;DHT22;8303;53.446;9.988;2022-08-19T07:37:01;18.80;99.90
16388;DHT22;8303;53.446;9.988;2022-08-19T07:39:31;18.80;99.90
16388;DHT22;8303;53.446;9.988;2022-08-19T07:42:01;18.80;99.90
16388;DHT22;8303;53.446;9.988;2022-08-19T07:44:29;18.70;99.90
16388;DHT22;8303;53.446;9.988;2022-08-19T07:46:56;18.80;99.90
16388;DHT22;8303;53.446;9.988;2022-08-19T07:49:26;18.70;99.90
16388;DHT22;8303;53.446;9.988;2022-08-19T07:51:54;18.80;99.90
16388;DHT22;8303;53.446;9.988;2022-08-19T07:54:24;18.80;99.90
16388;DHT22;8303;53.446;9.988;2022-08-19T07:56:52;18.80;99.90
16388;DHT22;8303;53.446;9.988;2022-08-19T07:59:20;18.90;99.90
16388;DHT22;8303;53.446;9.988;2022-08-19T08:01:48;18.90;99.90
16388;DHT22;8303;53.446;9.988;2022-08-19T08:04:16;18.90;99.90
16388;DHT22;8303;53.446;9.988;2022-08-19T08:07:01;18.90;99.90
16388;DHT22;8303;53.446;9.988;2022-08-19T08:09:47;18.90;99.90
16388;DHT22;8303;53.446;9.988;2022-08-19T08:12:18;19.00;99.90
16388;DHT22;8303;53.446;9.988;2022-08-19T08:14:48;19.00;99.90
16388;DHT22;8303;53.446;9.988;2022-08-19T08:17:19;18.80;99.90
16388;DHT22;8303;53.446;9.988;2022-08-19T08:19:47;18.70;99.90
16388;DHT22;8303;53.446;9.988;2022-08-19T08:22:18;18.80;99.90
16388;DHT22;8303;53.446;9.988;2022-08-19T08:25:04;18.90;99.90
16388;DHT22;8303;53.446;9.988;2022-08-19T08:27:33;18.90;99.90
16388;DHT22;8303;53.446;9.988;2022-08-19T08:30:02;18.90;99.90
16388;DHT22;8303;53.446;9.988;2022-08-19T08:32:29;19.10;99.90
16388;DHT22;8303;53.446;9.988;2022-08-19T08:34:56;19.20;99.90
16388;DHT22;8303;53.446;9.988;2022-08-19T08:37:24;19.20;99.90
16388;DHT22;8303;53.446;9.988;2022-08-19T08:39:51;19.20;99.90
16388;DHT22;8303;53.446;9.988;2022-08-19T08:42:26;19.20;99.90
16388;DHT22;8303;53.446;9.988;2022-08-19T08:44:59;19.20;99.90
16388;DHT22;8303;53.446;9.988;2022-08-19T08:47:30;19.20;99.90
16388;DHT22;8303;53.446;9.988;2022-08-19T08:50:03;19.20;99.90
16388;DHT22;8303;53.446;9.988;2022-08-19T08:52:33;19.20;99.90
16388;DHT22;8303;53.446;9.988;2022-08-19T08:55:07;19.20;99.90
16388;DHT22;8303;53.446;9.988;2022-08-19T08:57:52;19.30;99.90
16388;DHT22;8303;53.446;9.988;2022-08-19T09:00:23;19.40;99.90
16388;DHT22;8303;53.446;9.988;2022-08-19T09:02:52;19.40;99.90
16388;DHT22;8303;53.446;9.988;2022-08-19T09:05:20;19.10;99.90
16388;DHT22;8303;53.446;9.988;2022-08-19T09:07:53;19.10;99.90
16388;DHT22;8303;53.446;9.988;2022-08-19T09:10:29;19.10;99.90
16388;DHT22;8303;53.446;9.988;2022-08-19T09:13:03;19.20;99.90
16388;DHT22;8303;53.446;9.988;2022-08-19T09:15:38;19.30;99.90
16388;DHT22;8303;53.446;9.988;2022-08-19T09:18:08;19.40;99.90
16388;DHT22;8303;53.446;9.988;2022-08-19T09:20:35;19.40;99.90
16388;DHT22;8303;53.446;9.988;2022-08-19T09:23:02;19.60;99.90
16388;DHT22;8303;53.446;9.988;2022-08-19T09:25:29;19.70;99.90
16388;DHT22;8303;53.446;9.988;2022-08-19T09:27:58;19.60;99.90
16388;DHT22;8303;53.446;9.988;2022-08-19T09:30:31;19.70;99.90
16388;DHT22;8303;53.446;9.988;2022-08-19T09:32:59;19.80;99.90
16388;DHT22;8303;53.446;9.988;2022-08-19T09:35:30;19.90;99.90
16388;DHT22;8303;53.446;9.988;2022-08-19T09:37:59;20.00;99.90
16388;DHT22;8303;53.446;9.988;2022-08-19T09:40:27;19.90;99.90
16388;DHT22;8303;53.446;9.988;2022-08-19T09:42:55;19.90;99.90
16388;DHT22;8303;53.446;9.988;2022-08-19T09:45:24;19.80;99.90
16388;DHT22;8303;53.446;9.988;2022-08-19T09:47:51;19.70;99.90
16388;DHT22;8303;53.446;9.988;2022-08-19T09:50:21;19.70;99.90
16388;DHT22;8303;53.446;9.988;2022-08-19T09:52:49;19.60;99.90
16388;DHT22;8303;53.446;9.988;2022-08-19T09:55:18;19.60;99.90
16388;DHT22;8303;53.446;9.988;2022-08-19T09:57:45;19.70;99.90
16388;DHT22;8303;53.446;9.988;2022-08-19T10:00:13;19.80;99.90
16388;DHT22;8303;53.446;9.988;2022-08-19T10:02:41;20.10;99.90
16388;DHT22;8303;53.446;9.988;2022-08-19T10:05:08;20.10;99.90
16388;DHT22;8303;53.446;9.988;2022-08-19T10:07:53;20.00;99.90
16388;DHT22;8303;53.446;9.988;2022-08-19T10:10:20;20.00;99.90
16388;DHT22;8303;53.446;9.988;2022-08-19T10:12:47;20.00;99.90
16388;DHT22;8303;53.446;9.988;2022-08-19T10:15:14;20.20;99.90
16388;DHT22;8303;53.446;9.988;2022-08-19T10:17:43;20.40;99.90
16388;DHT22;8303;53.446;9.988;2022-08-19T10:20:13;20.70;99.90
16388;DHT22;8303;53.446;9.988;2022-08-19T10:22:40;20.90;99.90
16388;DHT22;8303;53.446;9.988;2022-08-19T10:25:08;20.80;99.90
16388;DHT22;8303;53.446;9.988;2022-08-19T10:27:35;20.50;99.90
16388;DHT22;8303;53.446;9.988;2022-08-19T10:30:04;20.50;99.90
16388;DHT22;8303;53.446;9.988;2022-08-19T10:32:32;20.50;99.90
16388;DHT22;8303;53.446;9.988;2022-08-19T10:35:01;20.70;99.90
16388;DHT22;8303;53.446;9.988;2022-08-19T10:37:28;20.70;99.90
16388;DHT22;8303;53.446;9.988;2022-08-19T10:39:56;20.70;99.90
16388;DHT22;8303;53.446;9.988;2022-08-19T10:42:23;20.70;99.90
16388;DHT22;8303;53.446;9.988;2022-08-19T10:44:50;20.60;99.90
16388;DHT22;8303;53.446;9.988;2022-08-19T10:47:22;20.40;99.90
16388;DHT22;8303;53.446;9.988;2022-08-19T10:49:49;20.40;99.90
16388;DHT22;8303;53.446;9.988;2022-08-19T10:52:35;20.40;99.90
16388;DHT22;8303;53.446;9.988;2022-08-19T10:55:04;20.30;99.90
16388;DHT22;8303;53.446;9.988;2022-08-19T10:57:49;20.30;99.90
16388;DHT22;8303;53.446;9.988;2022-08-19T11:00:18;20.10;99.90
16388;DHT22;8303;53.446;9.988;2022-08-19T11:02:45;20.10;99.90
16388;DHT22;8303;53.446;9.988;2022-08-19T11:05:14;20.00;99.90
16388;DHT22;8303;53.446;9.988;2022-08-19T11:07:44;20.10;99.90
16388;DHT22;8303;53.446;9.988;2022-08-19T11:10:14;20.30;99.90
16388;DHT22;8303;53.446;9.988;2022-08-19T11:12:44;20.40;99.90
16388;DHT22;8303;53.446;9.988;2022-08-19T11:15:13;20.70;99.90
16388;DHT22;8303;53.446;9.988;2022-08-19T11:17:40;20.70;99.90
16388;DHT22;8303;53.446;9.988;2022-08-19T11:20:10;20.80;99.90
16388;DHT22;8303;53.446;9.988;2022-08-19T11:22:37;20.90;99.90
16388;DHT22;8303;53.446;9.988;2022-08-19T11:25:08;20.80;99.90
16388;DHT22;8303;53.446;9.988;2022-08-19T11:27:38;20.70;99.90
16388;DHT22;8303;53.446;9.988;2022-08-19T11:30:09;20.50;99.90
16388;DHT22;8303;53.446;9.988;2022-08-19T11:32:36;20.50;99.90
16388;DHT22;8303;53.446;9.988;2022-08-19T11:35:04;20.70;99.90
16388;DHT22;8303;53.446;9.988;2022-08-19T11:37:32;20.80;99.90
16388;DHT22;8303;53.446;9.988;2022-08-19T11:40:04;21.20;99.90
16388;DHT22;8303;53.446;9.988;2022-08-19T11:42:33;21.80;99.90
16388;DHT22;8303;53.446;9.988;2022-08-19T11:45:17;22.10;99.90
16388;DHT22;8303;53.446;9.988;2022-08-19T11:47:44;22.20;99.90
16388;DHT22;8303;53.446;9.988;2022-08-19T11:50:15;22.00;99.90
16388;DHT22;8303;53.446;9.988;2022-08-19T11:52:43;22.00;99.90
16388;DHT22;8303;53.446;9.988;2022-08-19T11:55:11;22.00;99.90
16388;DHT22;8303;53.446;9.988;2022-08-19T11:57:40;21.70;99.90
16388;DHT22;8303;53.446;9.988;2022-08-19T12:00:09;21.60;99.90
16388;DHT22;8303;53.446;9.988;2022-08-19T12:02:37;21.60;99.90
16388;DHT22;8303;53.446;9.988;2022-08-19T12:05:05;21.60;99.90
16388;DHT22;8303;53.446;9.988;2022-08-19T12:07:33;21.80;99.90
16388;DHT22;8303;53.446;9.988;2022-08-19T12:10:00;21.80;99.90
16388;DHT22;8303;53.446;9.988;2022-08-19T12:12:27;21.40;99.90
16388;DHT22;8303;53.446;9.988;2022-08-19T12:14:56;21.30;99.90
16388;DHT22;8303;53.446;9.988;2022-08-19T12:17:24;21.20;99.90
16388;DHT22;8303;53.446;9.988;2022-08-19T12:19:52;21.40;99.90
16388;DHT22;8303;53.446;9.988;2022-08-19T12:22:19;21.70;99.90
16388;DHT22;8303;53.446;9.988;2022-08-19T12:24:47;21.80;99.90
16388;DHT22;8303;53.446;9.988;2022-08-19T12:27:16;22.10;99.90
16388;DHT22;8303;53.446;9.988;2022-08-19T12:29:43;22.10;99.90
16388;DHT22;8303;53.446;9.988;2022-08-19T12:32:11;22.20;99.90
16388;DHT22;8303;53.446;9.988;2022-08-19T12:34:39;22.50;99.90
16388;DHT22;8303;53.446;9.988;2022-08-19T12:37:07;22.60;99.90
16388;DHT22;8303;53.446;9.988;2022-08-19T12:39:36;23.10;91.60
16388;DHT22;8303;53.446;9.988;2022-08-19T12:42:04;23.10;55.50
16388;DHT22;8303;53.446;9.988;2022-08-19T12:44:32;22.90;75.80
16388;DHT22;8303;53.446;9.988;2022-08-19T12:47:00;23.20;44.30
16388;DHT22;8303;53.446;9.988;2022-08-19T12:49:29;23.60;1.00
16388;DHT22;8303;53.446;9.988;2022-08-19T12:51:59;23.80;1.00
16388;DHT22;8303;53.446;9.988;2022-08-19T12:54:27;23.70;1.00
16388;DHT22;8303;53.446;9.988;2022-08-19T12:56:54;23.30;1.00
16388;DHT22;8303;53.446;9.988;2022-08-19T12:59:21;23.80;1.00
16388;DHT22;8303;53.446;9.988;2022-08-19T13:01:51;24.10;1.00
16388;DHT22;8303;53.446;9.988;2022-08-19T13:04:18;24.00;1.00
16388;DHT22;8303;53.446;9.988;2022-08-19T13:06:47;23.90;1.00
16388;DHT22;8303;53.446;9.988;2022-08-19T13:09:14;23.70;1.00
16388;DHT22;8303;53.446;9.988;2022-08-19T13:11:42;23.80;1.00
16388;DHT22;8303;53.446;9.988;2022-08-19T13:14:10;23.60;1.00
16388;DHT22;8303;53.446;9.988;2022-08-19T13:16:37;23.60;1.00
16388;DHT22;8303;53.446;9.988;2022-08-19T13:19:06;23.60;1.00
16388;DHT22;8303;53.446;9.988;2022-08-19T13:21:33;23.70;1.00
16388;DHT22;8303;53.446;9.988;2022-08-19T13:24:02;23.80;1.00
16388;DHT22;8303;53.446;9.988;2022-08-19T13:26:29;23.90;1.00
16388;DHT22;8303;53.446;9.988;2022-08-19T13:28:56;23.90;1.00
16388;DHT22;8303;53.446;9.988;2022-08-19T13:31:41;23.90;1.00
16388;DHT22;8303;53.446;9.988;2022-08-19T13:34:28;23.90;1.00
16388;DHT22;8303;53.446;9.988;2022-08-19T13:36:56;24.00;1.00
16388;DHT22;8303;53.446;9.988;2022-08-19T13:39:24;24.40;1.00
16388;DHT22;8303;53.446;9.988;2022-08-19T13:41:52;24.00;1.00
16388;DHT22;8303;53.446;9.988;2022-08-19T13:44:19;23.90;1.00
16388;DHT22;8303;53.446;9.988;2022-08-19T13:46:48;24.10;1.00
16388;DHT22;8303;53.446;9.988;2022-08-19T13:49:17;24.20;1.00
16388;DHT22;8303;53.446;9.988;2022-08-19T13:51:46;24.20;1.00
16388;DHT22;8303;53.446;9.988;2022-08-19T13:54:13;24.20;1.00
16388;DHT22;8303;53.446;9.988;2022-08-19T13:56:44;24.50;1.00
16388;DHT22;8303;53.446;9.988;2022-08-19T13:59:12;24.70;1.00
16388;DHT22;8303;53.446;9.988;2022-08-19T14:01:43;24.40;1.00
16388;DHT22;8303;53.446;9.988;2022-08-19T14:04:10;24.10;1.00
16388;DHT22;8303;53.446;9.988;2022-08-19T14:06:39;24.00;1.00
16388;DHT22;8303;53.446;9.988;2022-08-19T14:09:06;23.90;1.00
16388;DHT22;8303;53.446;9.988;2022-08-19T14:11:33;23.90;1.00
16388;DHT22;8303;53.446;9.988;2022-08-19T14:14:08;23.90;1.00
16388;DHT22;8303;53.446;9.988;2022-08-19T14:16:36;24.00;1.00
16388;DHT22;8303;53.446;9.988;2022-08-19T14:19:03;23.90;1.00
16388;DHT22;8303;53.446;9.988;2022-08-19T14:21:30;23.70;1.00
16388;DHT22;8303;53.446;9.988;2022-08-19T14:23:59;23.80;1.00
16388;DHT22;8303;53.446;9.988;2022-08-19T14:26:26;23.90;1.00
16388;DHT22;8303;53.446;9.988;2022-08-19T14:28:53;23.80;1.00
16388;DHT22;8303;53.446;9.988;2022-08-19T14:31:24;23.70;1.00
16388;DHT22;8303;53.446;9.988;2022-08-19T14:33:51;23.60;1.00
16388;DHT22;8303;53.446;9.988;2022-08-19T14:36:19;23.80;1.00
16388;DHT22;8303;53.446;9.988;2022-08-19T14:38:47;23.80;1.00
16388;DHT22;8303;53.446;9.988;2022-08-19T14:41:17;24.00;1.00
16388;DHT22;8303;53.446;9.988;2022-08-19T14:43:45;24.40;1.00
16388;DHT22;8303;53.446;9.988;2022-08-19T14:46:14;25.30;99.90
16388;DHT22;8303;53.446;9.988;2022-08-19T14:48:43;26.30;99.90
16388;DHT22;8303;53.446;9.988;2022-08-19T14:51:10;27.10;99.90
16388;DHT22;8303;53.446;9.988;2022-08-19T14:53:37;26.90;99.90
16388;DHT22;8303;53.446;9.988;2022-08-19T14:56:08;27.30;99.90
16388;DHT22;8303;53.446;9.988;2022-08-19T14:58:35;27.40;99.90
16388;DHT22;8303;53.446;9.988;2022-08-19T15:01:03;27.20;99.90
16388;DHT22;8303;53.446;9.988;2022-08-19T15:03:31;26.70;99.90
16388;DHT22;8303;53.446;9.988;2022-08-19T15:06:01;26.90;99.90
16388;DHT22;8303;53.446;9.988;2022-08-19T15:08:29;27.10;99.90
16388;DHT22;8303;53.446;9.988;2022-08-19T15:10:57;27.40;99.90
16388;DHT22;8303;53.446;9.988;2022-08-19T15:13:26;27.60;99.90
16388;DHT22;8303;53.446;9.988;2022-08-19T15:15:55;27.70;99.90
16388;DHT22;8303;53.446;9.988;2022-08-19T15:18:23;28.60;99.90
16388;DHT22;8303;53.446;9.988;2022-08-19T15:20:51;28.80;99.90
16388;DHT22;8303;53.446;9.988;2022-08-19T15:23:20;29.90;99.90
16388;DHT22;8303;53.446;9.988;2022-08-19T15:25:48;30.10;99.90
16388;DHT22;8303;53.446;9.988;2022-08-19T15:28:20;30.30;99.90
16388;DHT22;8303;53.446;9.988;2022-08-19T15:30:47;30.90;99.90
16388;DHT22;8303;53.446;9.988;2022-08-19T15:33:16;30.60;99.90
16388;DHT22;8303;53.446;9.988;2022-08-19T15:35:46;31.10;99.90
16388;DHT22;8303;53.446;9.988;2022-08-19T15:38:15;31.10;99.90
16388;DHT22;8303;53.446;9.988;2022-08-19T15:40:46;32.20;99.90
16388;DHT22;8303;53.446;9.988;2022-08-19T15:43:14;32.00;99.90
16388;DHT22;8303;53.446;9.988;2022-08-19T15:45:41;32.80;99.90
16388;DHT22;8303;53.446;9.988;2022-08-19T15:48:10;32.60;99.90
16388;DHT22;8303;53.446;9.988;2022-08-19T15:50:37;33.10;99.90
16388;DHT22;8303;53.446;9.988;2022-08-19T15:53:06;33.00;99.90
16388;DHT22;8303;53.446;9.988;2022-08-19T15:55:35;33.40;99.90
16388;DHT22;8303;53.446;9.988;2022-08-19T15:58:09;32.40;99.90
16388;DHT22;8303;53.446;9.988;2022-08-19T16:00:54;31.70;99.90
16388;DHT22;8303;53.446;9.988;2022-08-19T16:03:39;31.90;99.90
16388;DHT22;8303;53.446;9.988;2022-08-19T16:06:33;30.60;99.90
16388;DHT22;8303;53.446;9.988;2022-08-19T16:09:02;30.20;99.90
16388;DHT22;8303;53.446;9.988;2022-08-19T16:11:32;29.50;99.90
16388;DHT22;8303;53.446;9.988;2022-08-19T16:14:01;27.70;99.90
16388;DHT22;8303;53.446;9.988;2022-08-19T16:16:30;28.70;99.90
16388;DHT22;8303;53.446;9.988;2022-08-19T16:19:00;29.60;99.90
16388;DHT22;8303;53.446;9.988;2022-08-19T16:21:28;30.30;99.90
16388;DHT22;8303;53.446;9.988;2022-08-19T16:23:58;30.40;99.90
16388;DHT22;8303;53.446;9.988;2022-08-19T16:26:26;31.10;99.90
16388;DHT22;8303;53.446;9.988;2022-08-19T16:28:56;30.30;99.90
16388;DHT22;8303;53.446;9.988;2022-08-19T16:31:25;30.10;99.90
16388;DHT22;8303;53.446;9.988;2022-08-19T16:33:53;28.90;99.90
16388;DHT22;8303;53.446;9.988;2022-08-19T16:36:20;29.60;99.90
16388;DHT22;8303;53.446;9.988;2022-08-19T16:38:48;30.70;99.90
16388;DHT22;8303;53.446;9.988;2022-08-19T16:41:16;31.10;99.90
16388;DHT22;8303;53.446;9.988;2022-08-19T16:43:43;30.20;99.90
16388;DHT22;8303;53.446;9.988;2022-08-19T16:46:10;29.90;99.90
16388;DHT22;8303;53.446;9.988;2022-08-19T16:48:41;29.70;99.90
16388;DHT22;8303;53.446;9.988;2022-08-19T16:51:12;29.50;99.90
16388;DHT22;8303;53.446;9.988;2022-08-19T16:53:41;29.90;99.90
16388;DHT22;8303;53.446;9.988;2022-08-19T16:56:10;29.60;99.90
16388;DHT22;8303;53.446;9.988;2022-08-19T16:58:38;29.90;99.90
16388;DHT22;8303;53.446;9.988;2022-08-19T17:01:07;30.30;99.90
16388;DHT22;8303;53.446;9.988;2022-08-19T17:03:37;29.70;99.90
16388;DHT22;8303;53.446;9.988;2022-08-19T17:06:13;30.00;99.90
16388;DHT22;8303;53.446;9.988;2022-08-19T17:08:41;30.30;99.90
16388;DHT22;8303;53.446;9.988;2022-08-19T17:11:08;30.30;99.90
16388;DHT22;8303;53.446;9.988;2022-08-19T17:13:38;29.40;99.90
16388;DHT22;8303;53.446;9.988;2022-08-19T17:16:08;28.80;99.90
16388;DHT22;8303;53.446;9.988;2022-08-19T17:18:36;28.50;99.90
16388;DHT22;8303;53.446;9.988;2022-08-19T17:21:03;28.40;99.90
16388;DHT22;8303;53.446;9.988;2022-08-19T17:23:32;28.80;99.90
16388;DHT22;8303;53.446;9.988;2022-08-19T17:25:59;28.50;99.90
16388;DHT22;8303;53.446;9.988;2022-08-19T17:28:28;28.20;99.90
16388;DHT22;8303;53.446;9.988;2022-08-19T17:30:56;28.20;99.90
16388;DHT22;8303;53.446;9.988;2022-08-19T17:33:23;27.70;99.90
16388;DHT22;8303;53.446;9.988;2022-08-19T17:35:50;26.60;99.90
16388;DHT22;8303;53.446;9.988;2022-08-19T17:38:19;25.40;99.90
16388;DHT22;8303;53.446;9.988;2022-08-19T17:40:53;24.70;99.90
16388;DHT22;8303;53.446;9.988;2022-08-19T17:43:29;24.10;99.90
16388;DHT22;8303;53.446;9.988;2022-08-19T17:45:57;23.70;99.90
16388;DHT22;8303;53.446;9.988;2022-08-19T17:48:27;23.30;99.90
16388;DHT22;8303;53.446;9.988;2022-08-19T17:50:55;23.20;99.90
16388;DHT22;8303;53.446;9.988;2022-08-19T17:53:23;23.00;99.90
16388;DHT22;8303;53.446;9.988;2022-08-19T17:55:52;22.80;99.90
16388;DHT22;8303;53.446;9.988;2022-08-19T17:58:19;22.70;99.90
16388;DHT22;8303;53.446;9.988;2022-08-19T18:00:46;22.50;99.90
16388;DHT22;8303;53.446;9.988;2022-08-19T18:03:16;22.40;99.90
16388;DHT22;8303;53.446;9.988;2022-08-19T18:05:43;22.30;99.90
16388;DHT22;8303;53.446;9.988;2022-08-19T18:08:10;22.20;99.90
16388;DHT22;8303;53.446;9.988;2022-08-19T18:10:38;22.20;99.90
16388;DHT22;8303;53.446;9.988;2022-08-19T18:13:06;22.20;99.90
16388;DHT22;8303;53.446;9.988;2022-08-19T18:15:34;22.10;99.90
16388;DHT22;8303;53.446;9.988;2022-08-19T18:18:01;22.10;99.90
16388;DHT22;8303;53.446;9.988;2022-08-19T18:20:28;22.00;99.90
16388;DHT22;8303;53.446;9.988;2022-08-19T18:22:55;22.00;99.90
16388;DHT22;8303;53.446;9.988;2022-08-19T18:25:27;21.90;99.90
16388;DHT22;8303;53.446;9.988;2022-08-19T18:27:55;21.80;99.90
16388;DHT22;8303;53.446;9.988;2022-08-19T18:30:26;21.70;99.90
16388;DHT22;8303;53.446;9.988;2022-08-19T18:32:56;21.70;99.90
16388;DHT22;8303;53.446;9.988;2022-08-19T18:35:27;21.60;99.90
16388;DHT22;8303;53.446;9.988;2022-08-19T18:37:56;21.50;99.90
16388;DHT22;8303;53.446;9.988;2022-08-19T18:40:24;21.50;99.90
16388;DHT22;8303;53.446;9.988;2022-08-19T18:43:09;21.40;99.90
16388;DHT22;8303;53.446;9.988;2022-08-19T18:45:56;21.40;99.90
16388;DHT22;8303;53.446;9.988;2022-08-19T18:48:40;21.30;99.90
16388;DHT22;8303;53.446;9.988;2022-08-19T18:51:25;21.30;99.90
16388;DHT22;8303;53.446;9.988;2022-08-19T18:53:57;21.20;99.90
16388;DHT22;8303;53.446;9.988;2022-08-19T18:56:26;21.10;99.90
16388;DHT22;8303;53.446;9.988;2022-08-19T18:58:56;21.10;99.90
16388;DHT22;8303;53.446;9.988;2022-08-19T19:01:28;21.00;99.90
16388;DHT22;8303;53.446;9.988;2022-08-19T19:04:07;21.00;1.00
16388;DHT22;8303;53.446;9.988;2022-08-19T19:06:37;21.00;1.00
16388;DHT22;8303;53.446;9.988;2022-08-19T19:09:07;20.90;1.00
16388;DHT22;8303;53.446;9.988;2022-08-19T19:11:37;20.80;1.00
16388;DHT22;8303;53.446;9.988;2022-08-19T19:14:07;20.80;1.00
16388;DHT22;8303;53.446;9.988;2022-08-19T19:16:38;20.80;1.00
16388;DHT22;8303;53.446;9.988;2022-08-19T19:19:06;20.70;1.00
16388;DHT22;8303;53.446;9.988;2022-08-19T19:21:38;20.70;1.00
16388;DHT22;8303;53.446;9.988;2022-08-19T19:24:07;20.60;1.00
16388;DHT22;8303;53.446;9.988;2022-08-19T19:26:36;20.60;1.00
16388;DHT22;8303;53.446;9.988;2022-08-19T19:29:03;20.60;1.00
16388;DHT22;8303;53.446;9.988;2022-08-19T19:31:31;20.50;1.00
16388;DHT22;8303;53.446;9.988;2022-08-19T19:34:00;20.50;1.00
16388;DHT22;8303;53.446;9.988;2022-08-19T19:36:27;20.30;1.00
16388;DHT22;8303;53.446;9.988;2022-08-19T19:38:54;20.20;1.00
16388;DHT22;8303;53.446;9.988;2022-08-19T19:41:22;20.00;1.00
16388;DHT22;8303;53.446;9.988;2022-08-19T19:43:51;19.90;1.00
16388;DHT22;8303;53.446;9.988;2022-08-19T19:46:18;19.80;1.00
16388;DHT22;8303;53.446;9.988;2022-08-19T19:48:51;19.80;1.00
16388;DHT22;8303;53.446;9.988;2022-08-19T19:51:22;19.60;1.00
16388;DHT22;8303;53.446;9.988;2022-08-19T19:53:50;19.50;54.10
16388;DHT22;8303;53.446;9.988;2022-08-19T19:56:19;19.50;99.90
16388;DHT22;8303;53.446;9.988;2022-08-19T19:58:47;19.30;99.90
16388;DHT22;8303;53.446;9.988;2022-08-19T20:01:15;19.20;99.90
16388;DHT22;8303;53.446;9.988;2022-08-19T20:03:43;19.10;99.90
16388;DHT22;8303;53.446;9.988;2022-08-19T20:06:13;19.00;99.90
16388;DHT22;8303;53.446;9.988;2022-08-19T20:08:42;19.00;99.90
16388;DHT22;8303;53.446;9.988;2022-08-19T20:11:29;18.90;99.90
16388;DHT22;8303;53.446;9.988;2022-08-19T20:13:59;18.80;99.90
16388;DHT22;8303;53.446;9.988;2022-08-19T20:16:28;18.70;99.90
16388;DHT22;8303;53.446;9.988;2022-08-19T20:18:56;18.70;99.90
16388;DHT22;8303;53.446;9.988;2022-08-19T20:21:25;18.70;99.90
16388;DHT22;8303;53.446;9.988;2022-08-19T20:23:55;18.60;99.90
16388;DHT22;8303;53.446;9.988;2022-08-19T20:26:22;18.60;99.90
16388;DHT22;8303;53.446;9.988;2022-08-19T20:28:50;18.50;99.90
